West Dade, Florida
Current Conditions -  °F | °C
As of 7:53 AM on Friday 28 Nov 2014 (Local Time) from KTMB Reporting Station
Clear Clear  
Wind Chill: 55°   Ceiling: Unl
Heat Index: 55°   Visibility: 10mi
Dew Point: 45°   Wind: 15mph
Humidity: 69%   Direction: 360°N
Pressure: 30.23"   Gusts: NA
Location:  25.5736°N, 80.7073°W
Report Text: KTMB 281253Z 36013KT 10SM CLR 13/07 A3023 RMK AO2 SLP237 T01280072
Loading
Personal Weather Stations






























Interactive Weather Map New forecast layout! Learn more

10-Day Weather Forecast

Advertisements
Track Severe Weather on mobile